Impacts TAF Board
For situational awareness. Not to be used for flight planning purposes.
IDs:

KCVG - Cincinnati Intl, KY, US

Issued at 0530 UTC 24 Mar 2019
Updated at 0736 UTC 24 Mar 2019
Potential Impact None Slight Moderate High
Time0652Z 24/08Z 24/09Z 24/10Z 24/11Z 24/12Z 24/13Z 24/14Z 24/15Z 24/16Z 24/17Z 24/18Z 24/19Z 24/20Z>>
Type OBS PRVL PRVL PRVL PRVL PRVL PRVL PRVL PRVL PRVL PRVL PRVL PRVL PRVL
VIS 10 >6 >6 >6 >6 >6 >6 >6 >6 >6 >6 >6 >6 >6
CIG 200 200 200 200 80 80 80 80 80 40 40 40 40 40
Cover BKN BKN BKN BKN OVC OVC OVC OVC OVC OVC OVC OVC OVC OVC
FltCat VFR VFR VFR VFR VFR VFR VFR VFR VFR VFR VFR VFR VFR VFR
WX -- -- -- -- -- -- -- -- -- -SHRA -SHRA -SHRA -SHRA -SHRA
WDir 170 VRB VRB VRB 140 140 140 140 140 200 200 200 200 200
WSpd 4 3 3 3 4 4 4 4 4 6 6 6 6 6
WGst -- -- -- -- -- -- -- -- -- -- -- -- -- --
Raw TAF
KCVG 240530Z 2406/2512 VRB03KT P6SM BKN200
  FM241100 14004KT P6SM OVC080
  FM241600 20006KT P6SM -SHRA OVC040
  FM242300 18005KT P6SM VCSH OVC025
  FM250600 VRB03KT 5SM -SHRA SCT025 OVC035


Raw METAR
KCVG 240652Z 17004KT 10SM FEW130 SCT160 BKN200 07/M06 A3022 RMK AO2 SLP234 T00721061
KCVG 240552Z 18003KT 10SM SCT160 BKN250 04/M04 A3023 RMK AO2 SLP238 T00441044 10111 20039 58010
KCVG 240452Z 20004KT 10SM BKN180 07/M06 A3024 RMK AO2 SLP243 T00671061 401441028

METAR Board
Radar Display
Forecast Discussion
For situational awareness. Not to be used for flight planning purposes.